sensor_id;sensor_type;location;lat;lon;timestamp;pressure;altitude;pressure_sealevel;temperature;humidity
57600;BME280;43426;43.594;24.334;2023-04-15T00:02:17;100339.41;;;4.63;93.58
57600;BME280;43426;43.594;24.334;2023-04-15T00:04:44;100341.50;;;4.78;93.31
57600;BME280;43426;43.594;24.334;2023-04-15T00:07:12;100338.22;;;4.94;92.95
57600;BME280;43426;43.594;24.334;2023-04-15T00:09:38;100347.03;;;5.15;92.65
57600;BME280;43426;43.594;24.334;2023-04-15T00:12:04;100334.00;;;5.39;92.28
57600;BME280;43426;43.594;24.334;2023-04-15T00:14:29;100334.09;;;5.48;91.60
57600;BME280;43426;43.594;24.334;2023-04-15T00:16:55;100338.31;;;5.50;91.44
57600;BME280;43426;43.594;24.334;2023-04-15T00:19:21;100355.06;;;5.52;91.16
57600;BME280;43426;43.594;24.334;2023-04-15T00:21:46;100362.09;;;5.53;91.26
57600;BME280;43426;43.594;24.334;2023-04-15T00:24:12;100370.38;;;5.60;90.93
57600;BME280;43426;43.594;24.334;2023-04-15T00:26:37;100361.00;;;5.74;90.90
57600;BME280;43426;43.594;24.334;2023-04-15T00:29:03;100368.41;;;5.90;89.95
57600;BME280;43426;43.594;24.334;2023-04-15T00:31:28;100363.84;;;6.00;88.98
57600;BME280;43426;43.594;24.334;2023-04-15T00:33:54;100368.94;;;5.93;87.64
57600;BME280;43426;43.594;24.334;2023-04-15T00:36:19;100375.63;;;5.79;87.84
57600;BME280;43426;43.594;24.334;2023-04-15T00:38:44;100384.69;;;5.69;88.49
57600;BME280;43426;43.594;24.334;2023-04-15T00:41:12;100385.00;;;5.66;84.44
57600;BME280;43426;43.594;24.334;2023-04-15T00:43:37;100386.13;;;5.25;83.66
57600;BME280;43426;43.594;24.334;2023-04-15T00:46:03;100385.91;;;5.09;84.31
57600;BME280;43426;43.594;24.334;2023-04-15T00:48:29;100393.25;;;4.87;85.93
57600;BME280;43426;43.594;24.334;2023-04-15T00:50:54;100394.13;;;4.78;87.87
57600;BME280;43426;43.594;24.334;2023-04-15T00:53:20;100394.97;;;4.69;89.65
57600;BME280;43426;43.594;24.334;2023-04-15T00:55:45;100396.38;;;4.63;90.00
57600;BME280;43426;43.594;24.334;2023-04-15T00:58:10;100413.09;;;4.55;91.01
57600;BME280;43426;43.594;24.334;2023-04-15T01:00:36;100408.16;;;4.41;92.68
57600;BME280;43426;43.594;24.334;2023-04-15T01:03:01;100398.22;;;4.53;92.87
57600;BME280;43426;43.594;24.334;2023-04-15T01:05:27;100412.41;;;4.43;93.63
57600;BME280;43426;43.594;24.334;2023-04-15T01:07:52;100402.53;;;4.44;93.95
57600;BME280;43426;43.594;24.334;2023-04-15T01:10:19;100402.84;;;4.41;94.84
57600;BME280;43426;43.594;24.334;2023-04-15T01:12:44;100392.97;;;4.41;95.10
57600;BME280;43426;43.594;24.334;2023-04-15T01:15:09;100404.25;;;4.45;94.69
57600;BME280;43426;43.594;24.334;2023-04-15T01:17:35;100398.75;;;4.66;93.94
57600;BME280;43426;43.594;24.334;2023-04-15T01:20:00;100407.06;;;4.63;93.53
57600;BME280;43426;43.594;24.334;2023-04-15T01:22:26;100418.56;;;4.64;93.56
57600;BME280;43426;43.594;24.334;2023-04-15T01:24:56;100408.91;;;4.63;92.51
57600;BME280;43426;43.594;24.334;2023-04-15T01:27:26;100407.34;;;4.60;92.41
57600;BME280;43426;43.594;24.334;2023-04-15T01:29:51;100418.19;;;4.49;91.89
57600;BME280;43426;43.594;24.334;2023-04-15T01:32:16;100418.03;;;4.50;91.68
57600;BME280;43426;43.594;24.334;2023-04-15T01:34:42;100425.63;;;4.45;90.86
57600;BME280;43426;43.594;24.334;2023-04-15T01:37:07;100428.84;;;4.39;89.63
57600;BME280;43426;43.594;24.334;2023-04-15T01:39:32;100424.47;;;4.18;89.97
57600;BME280;43426;43.594;24.334;2023-04-15T01:41:57;100441.31;;;4.19;88.63
57600;BME280;43426;43.594;24.334;2023-04-15T01:44:23;100435.34;;;3.96;89.90
57600;BME280;43426;43.594;24.334;2023-04-15T01:46:48;100442.94;;;3.90;90.40
57600;BME280;43426;43.594;24.334;2023-04-15T01:49:13;100457.06;;;3.81;91.89
57600;BME280;43426;43.594;24.334;2023-04-15T01:51:39;100463.06;;;3.73;93.76
57600;BME280;43426;43.594;24.334;2023-04-15T01:54:04;100472.94;;;3.83;95.00
57600;BME280;43426;43.594;24.334;2023-04-15T01:56:29;100467.94;;;3.89;95.50
57600;BME280;43426;43.594;24.334;2023-04-15T01:58:54;100461.50;;;4.02;95.31
57600;BME280;43426;43.594;24.334;2023-04-15T02:01:20;100462.09;;;4.15;94.76
57600;BME280;43426;43.594;24.334;2023-04-15T02:03:46;100451.91;;;3.89;93.08
57600;BME280;43426;43.594;24.334;2023-04-15T02:06:11;100453.53;;;3.81;92.56
57600;BME280;43426;43.594;24.334;2023-04-15T02:08:37;100471.94;;;3.74;92.71
57600;BME280;43426;43.594;24.334;2023-04-15T02:11:02;100457.47;;;3.77;92.68
57600;BME280;43426;43.594;24.334;2023-04-15T02:13:28;100453.69;;;3.48;94.28
57600;BME280;43426;43.594;24.334;2023-04-15T02:15:53;100446.88;;;3.34;95.12
57600;BME280;43426;43.594;24.334;2023-04-15T02:18:19;100442.13;;;3.38;96.53
57600;BME280;43426;43.594;24.334;2023-04-15T02:20:45;100456.41;;;3.58;96.29
57600;BME280;43426;43.594;24.334;2023-04-15T02:23:11;100454.94;;;3.75;95.15
57600;BME280;43426;43.594;24.334;2023-04-15T02:25:36;100443.97;;;3.47;96.67
57600;BME280;43426;43.594;24.334;2023-04-15T02:28:03;100447.19;;;3.41;97.58
57600;BME280;43426;43.594;24.334;2023-04-15T02:30:28;100439.81;;;3.54;98.10
57600;BME280;43426;43.594;24.334;2023-04-15T02:32:54;100426.22;;;3.57;98.42
57600;BME280;43426;43.594;24.334;2023-04-15T02:35:19;100439.00;;;3.64;98.09
57600;BME280;43426;43.594;24.334;2023-04-15T02:37:45;100431.56;;;3.57;97.77
57600;BME280;43426;43.594;24.334;2023-04-15T02:40:13;100433.50;;;3.55;97.70
57600;BME280;43426;43.594;24.334;2023-04-15T02:42:39;100433.53;;;3.65;97.90
57600;BME280;43426;43.594;24.334;2023-04-15T02:45:05;100421.31;;;3.63;98.46
57600;BME280;43426;43.594;24.334;2023-04-15T02:47:30;100429.09;;;3.75;98.08
57600;BME280;43426;43.594;24.334;2023-04-15T02:49:56;100433.56;;;3.75;97.96
57600;BME280;43426;43.594;24.334;2023-04-15T02:52:23;100442.59;;;3.74;98.03
57600;BME280;43426;43.594;24.334;2023-04-15T02:54:48;100430.91;;;3.75;98.39
57600;BME280;43426;43.594;24.334;2023-04-15T02:57:13;100427.00;;;3.79;98.44
57600;BME280;43426;43.594;24.334;2023-04-15T02:59:39;100424.63;;;3.86;97.81
57600;BME280;43426;43.594;24.334;2023-04-15T03:02:04;100425.34;;;3.88;97.90
57600;BME280;43426;43.594;24.334;2023-04-15T03:04:31;100429.47;;;4.02;97.08
57600;BME280;43426;43.594;24.334;2023-04-15T03:06:57;100427.50;;;4.04;96.87
57600;BME280;43426;43.594;24.334;2023-04-15T03:09:22;100430.59;;;3.99;97.19
57600;BME280;43426;43.594;24.334;2023-04-15T03:11:47;100432.84;;;4.04;96.97
57600;BME280;43426;43.594;24.334;2023-04-15T03:14:12;100428.59;;;4.01;97.16
57600;BME280;43426;43.594;24.334;2023-04-15T03:16:40;100435.94;;;3.99;97.18
57600;BME280;43426;43.594;24.334;2023-04-15T03:19:05;100437.03;;;3.97;97.51
57600;BME280;43426;43.594;24.334;2023-04-15T03:21:31;100446.94;;;4.16;96.77
57600;BME280;43426;43.594;24.334;2023-04-15T03:23:56;100451.97;;;4.09;95.60
57600;BME280;43426;43.594;24.334;2023-04-15T03:26:25;100450.28;;;4.18;93.80
57600;BME280;43426;43.594;24.334;2023-04-15T03:28:51;100447.66;;;3.77;95.17
57600;BME280;43426;43.594;24.334;2023-04-15T03:31:16;100444.31;;;3.54;97.88
57600;BME280;43426;43.594;24.334;2023-04-15T03:33:41;100444.25;;;3.44;98.69
57600;BME280;43426;43.594;24.334;2023-04-15T03:36:06;100445.63;;;3.38;99.85
57600;BME280;43426;43.594;24.334;2023-04-15T03:38:32;100446.28;;;3.52;100.00
57600;BME280;43426;43.594;24.334;2023-04-15T03:40:57;100449.56;;;3.65;100.00
57600;BME280;43426;43.594;24.334;2023-04-15T03:43:22;100455.09;;;3.83;100.00
57600;BME280;43426;43.594;24.334;2023-04-15T03:45:47;100451.19;;;3.87;99.46
57600;BME280;43426;43.594;24.334;2023-04-15T03:48:13;100458.66;;;3.94;99.17
57600;BME280;43426;43.594;24.334;2023-04-15T03:50:38;100463.66;;;4.18;97.55
57600;BME280;43426;43.594;24.334;2023-04-15T03:53:03;100471.47;;;4.00;96.88
57600;BME280;43426;43.594;24.334;2023-04-15T03:55:29;100469.63;;;3.90;95.47
57600;BME280;43426;43.594;24.334;2023-04-15T03:57:54;100477.69;;;3.79;94.85
57600;BME280;43426;43.594;24.334;2023-04-15T04:00:19;100479.22;;;3.72;94.91
57600;BME280;43426;43.594;24.334;2023-04-15T04:02:45;100492.84;;;3.69;95.53
57600;BME280;43426;43.594;24.334;2023-04-15T04:05:10;100506.31;;;3.67;95.66
57600;BME280;43426;43.594;24.334;2023-04-15T04:07:35;100510.53;;;3.70;95.52
57600;BME280;43426;43.594;24.334;2023-04-15T04:10:01;100525.88;;;3.78;94.75
57600;BME280;43426;43.594;24.334;2023-04-15T04:12:27;100519.56;;;3.79;94.67
57600;BME280;43426;43.594;24.334;2023-04-15T04:14:53;100519.00;;;4.06;94.57
57600;BME280;43426;43.594;24.334;2023-04-15T04:17:18;100524.22;;;4.17;93.82
57600;BME280;43426;43.594;24.334;2023-04-15T04:19:43;100534.94;;;4.27;94.03
57600;BME280;43426;43.594;24.334;2023-04-15T04:22:08;100542.91;;;4.68;93.48
57600;BME280;43426;43.594;24.334;2023-04-15T04:24:34;100546.19;;;4.91;91.36
57600;BME280;43426;43.594;24.334;2023-04-15T04:26:59;100556.22;;;5.08;90.38
57600;BME280;43426;43.594;24.334;2023-04-15T04:29:25;100548.34;;;4.97;89.96
57600;BME280;43426;43.594;24.334;2023-04-15T04:31:51;100542.13;;;4.97;90.36
57600;BME280;43426;43.594;24.334;2023-04-15T04:34:16;100538.47;;;4.98;90.30
57600;BME280;43426;43.594;24.334;2023-04-15T04:36:41;100543.81;;;4.98;90.47
57600;BME280;43426;43.594;24.334;2023-04-15T04:39:06;100550.28;;;4.85;90.78
57600;BME280;43426;43.594;24.334;2023-04-15T04:41:32;100545.50;;;4.79;92.48
57600;BME280;43426;43.594;24.334;2023-04-15T04:43:57;100547.75;;;5.33;92.09
57600;BME280;43426;43.594;24.334;2023-04-15T04:46:22;100545.81;;;5.92;90.06
57600;BME280;43426;43.594;24.334;2023-04-15T04:48:48;100552.81;;;6.50;87.59
57600;BME280;43426;43.594;24.334;2023-04-15T04:51:13;100554.81;;;6.94;86.26
57600;BME280;43426;43.594;24.334;2023-04-15T04:53:38;100559.88;;;7.33;84.26
57600;BME280;43426;43.594;24.334;2023-04-15T04:56:03;100553.97;;;7.74;82.52
57600;BME280;43426;43.594;24.334;2023-04-15T04:58:29;100550.81;;;8.05;80.91
57600;BME280;43426;43.594;24.334;2023-04-15T05:00:54;100550.50;;;8.42;78.76
57600;BME280;43426;43.594;24.334;2023-04-15T05:03:20;100563.78;;;8.86;77.13
57600;BME280;43426;43.594;24.334;2023-04-15T05:05:46;100563.69;;;9.29;74.23
57600;BME280;43426;43.594;24.334;2023-04-15T05:08:13;100568.22;;;9.53;73.27
57600;BME280;43426;43.594;24.334;2023-04-15T05:10:38;100570.06;;;9.86;72.59
57600;BME280;43426;43.594;24.334;2023-04-15T05:13:03;100573.34;;;10.21;71.61
57600;BME280;43426;43.594;24.334;2023-04-15T05:15:29;100582.38;;;10.53;69.17
57600;BME280;43426;43.594;24.334;2023-04-15T05:17:54;100575.97;;;10.85;68.05
57600;BME280;43426;43.594;24.334;2023-04-15T05:20:19;100590.91;;;11.28;66.53
57600;BME280;43426;43.594;24.334;2023-04-15T05:22:44;100593.56;;;11.59;64.01
57600;BME280;43426;43.594;24.334;2023-04-15T05:25:10;100594.06;;;11.78;63.31
57600;BME280;43426;43.594;24.334;2023-04-15T05:27:35;100588.97;;;11.83;64.28
57600;BME280;43426;43.594;24.334;2023-04-15T05:30:01;100585.47;;;11.97;63.55
57600;BME280;43426;43.594;24.334;2023-04-15T05:32:26;100586.25;;;12.21;62.83
57600;BME280;43426;43.594;24.334;2023-04-15T05:34:51;100584.75;;;12.48;60.95
57600;BME280;43426;43.594;24.334;2023-04-15T05:37:17;100593.25;;;12.60;61.32
57600;BME280;43426;43.594;24.334;2023-04-15T05:39:45;100602.53;;;12.87;61.64
57600;BME280;43426;43.594;24.334;2023-04-15T05:42:10;100607.31;;;13.22;59.81
57600;BME280;43426;43.594;24.334;2023-04-15T05:44:36;100613.28;;;13.54;59.25
57600;BME280;43426;43.594;24.334;2023-04-15T05:47:03;100615.97;;;13.97;58.34
57600;BME280;43426;43.594;24.334;2023-04-15T05:49:29;100623.06;;;14.26;55.38
57600;BME280;43426;43.594;24.334;2023-04-15T05:51:55;100623.88;;;14.55;54.14
57600;BME280;43426;43.594;24.334;2023-04-15T05:54:20;100610.84;;;14.72;54.43
57600;BME280;43426;43.594;24.334;2023-04-15T05:56:47;100620.56;;;15.02;54.10
57600;BME280;43426;43.594;24.334;2023-04-15T05:59:12;100615.66;;;15.39;53.96
57600;BME280;43426;43.594;24.334;2023-04-15T06:01:37;100608.53;;;15.38;54.70
57600;BME280;43426;43.594;24.334;2023-04-15T06:04:04;100620.53;;;15.70;52.41
57600;BME280;43426;43.594;24.334;2023-04-15T06:06:29;100610.47;;;15.91;51.41
57600;BME280;43426;43.594;24.334;2023-04-15T06:08:54;100608.19;;;16.14;50.50
57600;BME280;43426;43.594;24.334;2023-04-15T06:11:20;100610.03;;;16.41;49.72
57600;BME280;43426;43.594;24.334;2023-04-15T06:13:46;100614.13;;;16.70;48.28
57600;BME280;43426;43.594;24.334;2023-04-15T06:16:11;100613.88;;;16.85;47.23
57600;BME280;43426;43.594;24.334;2023-04-15T06:18:36;100613.63;;;16.93;47.95
57600;BME280;43426;43.594;24.334;2023-04-15T06:21:02;100618.75;;;17.22;47.10
57600;BME280;43426;43.594;24.334;2023-04-15T06:23:27;100617.84;;;17.34;47.17
57600;BME280;43426;43.594;24.334;2023-04-15T06:25:52;100611.81;;;17.58;47.92
57600;BME280;43426;43.594;24.334;2023-04-15T06:28:18;100612.44;;;17.92;46.13
57600;BME280;43426;43.594;24.334;2023-04-15T06:30:43;100624.44;;;18.09;44.77
57600;BME280;43426;43.594;24.334;2023-04-15T06:33:08;100631.91;;;18.20;41.40
57600;BME280;43426;43.594;24.334;2023-04-15T06:35:34;100621.13;;;18.07;42.95
57600;BME280;43426;43.594;24.334;2023-04-15T06:38:00;100616.59;;;18.19;43.05
57600;BME280;43426;43.594;24.334;2023-04-15T06:40:25;100620.22;;;18.13;42.97
57600;BME280;43426;43.594;24.334;2023-04-15T06:42:50;100619.31;;;18.19;42.91
57600;BME280;43426;43.594;24.334;2023-04-15T06:45:16;100615.31;;;18.41;44.03
57600;BME280;43426;43.594;24.334;2023-04-15T06:47:41;100612.53;;;18.66;43.25
57600;BME280;43426;43.594;24.334;2023-04-15T06:50:08;100621.78;;;18.83;43.14
57600;BME280;43426;43.594;24.334;2023-04-15T06:52:34;100618.28;;;19.13;42.16
57600;BME280;43426;43.594;24.334;2023-04-15T06:55:00;100634.25;;;19.47;42.17
57600;BME280;43426;43.594;24.334;2023-04-15T06:57:26;100639.88;;;19.76;41.85
57600;BME280;43426;43.594;24.334;2023-04-15T06:59:51;100634.50;;;19.99;41.31
57600;BME280;43426;43.594;24.334;2023-04-15T07:02:18;100638.44;;;20.15;41.12
57600;BME280;43426;43.594;24.334;2023-04-15T07:04:43;100635.94;;;20.37;41.05
57600;BME280;43426;43.594;24.334;2023-04-15T07:07:09;100642.81;;;20.64;40.33
57600;BME280;43426;43.594;24.334;2023-04-15T07:09:34;100656.75;;;20.98;39.12
57600;BME280;43426;43.594;24.334;2023-04-15T07:11:59;100649.38;;;21.27;38.52
57600;BME280;43426;43.594;24.334;2023-04-15T07:14:24;100655.56;;;21.22;38.17
57600;BME280;43426;43.594;24.334;2023-04-15T07:16:50;100649.22;;;21.05;38.51
57600;BME280;43426;43.594;24.334;2023-04-15T07:19:15;100656.19;;;20.72;38.89
57600;BME280;43426;43.594;24.334;2023-04-15T07:21:40;100655.94;;;20.38;39.51
57600;BME280;43426;43.594;24.334;2023-04-15T07:24:06;100646.69;;;20.27;40.07
57600;BME280;43426;43.594;24.334;2023-04-15T07:26:31;100664.38;;;19.89;41.13
57600;BME280;43426;43.594;24.334;2023-04-15T07:28:59;100667.06;;;19.77;41.84
57600;BME280;43426;43.594;24.334;2023-04-15T07:31:24;100674.09;;;19.24;42.70
57600;BME280;43426;43.594;24.334;2023-04-15T07:33:49;100675.69;;;19.93;42.25
57600;BME280;43426;43.594;24.334;2023-04-15T07:36:15;100674.53;;;20.12;41.12
57600;BME280;43426;43.594;24.334;2023-04-15T07:38:40;100673.94;;;20.34;42.42
57600;BME280;43426;43.594;24.334;2023-04-15T07:41:05;100682.28;;;20.27;41.28
57600;BME280;43426;43.594;24.334;2023-04-15T07:43:30;100685.13;;;20.32;39.43
57600;BME280;43426;43.594;24.334;2023-04-15T07:45:56;100684.31;;;20.55;40.35
57600;BME280;43426;43.594;24.334;2023-04-15T07:48:23;100681.31;;;20.92;40.98
57600;BME280;43426;43.594;24.334;2023-04-15T07:50:48;100688.50;;;20.94;39.25
57600;BME280;43426;43.594;24.334;2023-04-15T07:53:13;100682.44;;;21.20;39.51
57600;BME280;43426;43.594;24.334;2023-04-15T07:55:39;100686.69;;;21.69;38.33
57600;BME280;43426;43.594;24.334;2023-04-15T07:58:04;100676.22;;;22.00;37.80
57600;BME280;43426;43.594;24.334;2023-04-15T08:00:29;100679.66;;;22.24;37.89
57600;BME280;43426;43.594;24.334;2023-04-15T08:02:57;100672.63;;;22.33;38.52
57600;BME280;43426;43.594;24.334;2023-04-15T08:05:23;100679.59;;;22.02;37.61
57600;BME280;43426;43.594;24.334;2023-04-15T08:07:48;100674.91;;;21.27;37.19
57600;BME280;43426;43.594;24.334;2023-04-15T08:10:14;100669.63;;;20.97;37.12
57600;BME280;43426;43.594;24.334;2023-04-15T08:12:39;100668.56;;;20.98;38.14
57600;BME280;43426;43.594;24.334;2023-04-15T08:15:05;100657.66;;;21.44;36.55
57600;BME280;43426;43.594;24.334;2023-04-15T08:17:32;100661.69;;;21.82;35.94
57600;BME280;43426;43.594;24.334;2023-04-15T08:19:57;100656.34;;;22.09;33.96
57600;BME280;43426;43.594;24.334;2023-04-15T08:22:23;100647.75;;;22.23;33.88
57600;BME280;43426;43.594;24.334;2023-04-15T08:24:48;100658.16;;;22.55;33.86
57600;BME280;43426;43.594;24.334;2023-04-15T08:27:13;100655.69;;;22.75;34.61
57600;BME280;43426;43.594;24.334;2023-04-15T08:29:38;100660.81;;;22.33;34.60
57600;BME280;43426;43.594;24.334;2023-04-15T08:32:04;100656.59;;;22.42;34.53
57600;BME280;43426;43.594;24.334;2023-04-15T08:34:30;100650.25;;;22.41;35.79
57600;BME280;43426;43.594;24.334;2023-04-15T08:36:56;100652.31;;;22.90;34.02
57600;BME280;43426;43.594;24.334;2023-04-15T08:39:21;100650.53;;;23.23;35.42
57600;BME280;43426;43.594;24.334;2023-04-15T08:41:51;100653.91;;;23.08;35.90
57600;BME280;43426;43.594;24.334;2023-04-15T08:44:17;100660.03;;;22.93;33.50
57600;BME280;43426;43.594;24.334;2023-04-15T08:46:44;100671.50;;;22.46;33.12
57600;BME280;43426;43.594;24.334;2023-04-15T08:49:10;100660.66;;;22.05;33.81
57600;BME280;43426;43.594;24.334;2023-04-15T08:51:39;100666.00;;;21.49;35.76
57600;BME280;43426;43.594;24.334;2023-04-15T08:54:04;100658.72;;;21.72;35.60
57600;BME280;43426;43.594;24.334;2023-04-15T08:56:31;100657.09;;;22.22;33.80
57600;BME280;43426;43.594;24.334;2023-04-15T08:58:57;100663.69;;;22.77;34.00
57600;BME280;43426;43.594;24.334;2023-04-15T09:01:23;100656.94;;;23.29;32.69
57600;BME280;43426;43.594;24.334;2023-04-15T09:03:48;100652.81;;;23.59;33.83
57600;BME280;43426;43.594;24.334;2023-04-15T09:06:15;100651.88;;;24.03;32.90
57600;BME280;43426;43.594;24.334;2023-04-15T09:08:40;100655.50;;;24.08;31.70
57600;BME280;43426;43.594;24.334;2023-04-15T09:11:06;100657.91;;;23.45;32.66
57600;BME280;43426;43.594;24.334;2023-04-15T09:13:31;100665.63;;;22.99;32.26
57600;BME280;43426;43.594;24.334;2023-04-15T09:15:56;100661.56;;;23.23;31.75
57600;BME280;43426;43.594;24.334;2023-04-15T09:18:28;100651.88;;;23.48;31.58
57600;BME280;43426;43.594;24.334;2023-04-15T09:20:54;100656.13;;;23.11;31.63
57600;BME280;43426;43.594;24.334;2023-04-15T09:23:20;100652.09;;;22.02;32.56
57600;BME280;43426;43.594;24.334;2023-04-15T09:25:46;100653.28;;;22.06;32.12
57600;BME280;43426;43.594;24.334;2023-04-15T09:28:13;100645.56;;;22.25;31.57
57600;BME280;43426;43.594;24.334;2023-04-15T09:30:38;100644.22;;;22.61;31.89
57600;BME280;43426;43.594;24.334;2023-04-15T09:33:07;100641.59;;;23.38;32.19
57600;BME280;43426;43.594;24.334;2023-04-15T09:35:35;100633.72;;;24.07;31.39
57600;BME280;43426;43.594;24.334;2023-04-15T09:38:08;100638.00;;;24.30;29.37
57600;BME280;43426;43.594;24.334;2023-04-15T09:40:38;100629.97;;;24.23;29.98
57600;BME280;43426;43.594;24.334;2023-04-15T09:43:04;100621.91;;;24.59;30.58
57600;BME280;43426;43.594;24.334;2023-04-15T09:45:29;100620.72;;;24.98;29.51
57600;BME280;43426;43.594;24.334;2023-04-15T09:47:59;100616.41;;;25.33;28.39
57600;BME280;43426;43.594;24.334;2023-04-15T09:50:30;100620.59;;;25.41;28.13
57600;BME280;43426;43.594;24.334;2023-04-15T09:52:55;100613.41;;;25.55;28.73
57600;BME280;43426;43.594;24.334;2023-04-15T09:55:21;100610.38;;;25.41;27.07
57600;BME280;43426;43.594;24.334;2023-04-15T09:57:46;100609.25;;;25.42;28.90
57600;BME280;43426;43.594;24.334;2023-04-15T10:00:12;100602.28;;;25.29;26.56
57600;BME280;43426;43.594;24.334;2023-04-15T10:02:39;100598.31;;;24.84;26.62
57600;BME280;43426;43.594;24.334;2023-04-15T10:05:04;100593.91;;;24.88;26.91
57600;BME280;43426;43.594;24.334;2023-04-15T10:07:30;100596.28;;;24.64;26.39
57600;BME280;43426;43.594;24.334;2023-04-15T10:09:56;100588.78;;;24.59;29.23
57600;BME280;43426;43.594;24.334;2023-04-15T10:12:23;100587.78;;;24.76;29.09
57600;BME280;43426;43.594;24.334;2023-04-15T10:14:55;100590.38;;;25.08;27.92
57600;BME280;43426;43.594;24.334;2023-04-15T10:17:22;100576.94;;;25.43;27.30
57600;BME280;43426;43.594;24.334;2023-04-15T10:19:52;100576.09;;;25.47;26.85
57600;BME280;43426;43.594;24.334;2023-04-15T10:22:18;100573.50;;;24.36;27.38
57600;BME280;43426;43.594;24.334;2023-04-15T10:24:44;100575.88;;;24.17;28.69
57600;BME280;43426;43.594;24.334;2023-04-15T10:27:11;100573.75;;;24.29;28.04
57600;BME280;43426;43.594;24.334;2023-04-15T10:29:36;100568.78;;;24.85;28.41
57600;BME280;43426;43.594;24.334;2023-04-15T10:32:03;100567.72;;;25.11;27.34
57600;BME280;43426;43.594;24.334;2023-04-15T10:34:29;100573.81;;;25.13;26.11
57600;BME280;43426;43.594;24.334;2023-04-15T10:37:00;100571.41;;;25.43;26.64
57600;BME280;43426;43.594;24.334;2023-04-15T10:42:12;100565.03;;;25.99;25.78
57600;BME280;43426;43.594;24.334;2023-04-15T10:44:41;100559.25;;;25.75;25.90
57600;BME280;43426;43.594;24.334;2023-04-15T10:47:11;100563.66;;;25.65;25.99
57600;BME280;43426;43.594;24.334;2023-04-15T10:49:41;100575.00;;;25.38;26.89
57600;BME280;43426;43.594;24.334;2023-04-15T10:52:07;100575.22;;;25.21;24.84
57600;BME280;43426;43.594;24.334;2023-04-15T10:54:34;100570.38;;;24.65;26.91
57600;BME280;43426;43.594;24.334;2023-04-15T10:59:31;100578.09;;;23.83;27.85
57600;BME280;43426;43.594;24.334;2023-04-15T11:02:02;100572.88;;;23.86;28.96
57600;BME280;43426;43.594;24.334;2023-04-15T11:07:12;100589.69;;;23.52;28.77
57600;BME280;43426;43.594;24.334;2023-04-15T11:09:37;100585.78;;;23.48;27.08
57600;BME280;43426;43.594;24.334;2023-04-15T11:12:08;100578.91;;;23.45;27.82
57600;BME280;43426;43.594;24.334;2023-04-15T11:14:39;100578.31;;;23.76;28.26
57600;BME280;43426;43.594;24.334;2023-04-15T11:17:06;100578.66;;;24.22;29.20
57600;BME280;43426;43.594;24.334;2023-04-15T11:19:35;100569.41;;;24.44;28.06
57600;BME280;43426;43.594;24.334;2023-04-15T11:22:10;100574.84;;;24.87;26.87
57600;BME280;43426;43.594;24.334;2023-04-15T11:24:35;100570.78;;;25.10;27.01
57600;BME280;43426;43.594;24.334;2023-04-15T11:27:01;100571.25;;;24.86;25.56
57600;BME280;43426;43.594;24.334;2023-04-15T11:29:32;100565.28;;;25.20;26.65
57600;BME280;43426;43.594;24.334;2023-04-15T11:32:05;100556.50;;;25.39;26.60
57600;BME280;43426;43.594;24.334;2023-04-15T11:34:31;100559.16;;;25.03;25.25
57600;BME280;43426;43.594;24.334;2023-04-15T11:36:57;100551.06;;;24.65;25.18
57600;BME280;43426;43.594;24.334;2023-04-15T11:39:25;100547.44;;;24.64;26.59
57600;BME280;43426;43.594;24.334;2023-04-15T11:41:53;100544.53;;;25.02;27.77
57600;BME280;43426;43.594;24.334;2023-04-15T11:44:18;100543.06;;;24.16;27.42
57600;BME280;43426;43.594;24.334;2023-04-15T11:46:44;100548.66;;;24.31;27.73
57600;BME280;43426;43.594;24.334;2023-04-15T11:49:09;100536.09;;;23.70;28.61
57600;BME280;43426;43.594;24.334;2023-04-15T11:51:35;100545.66;;;22.53;28.39
57600;BME280;43426;43.594;24.334;2023-04-15T11:54:00;100540.81;;;22.21;30.16
57600;BME280;43426;43.594;24.334;2023-04-15T11:56:26;100540.81;;;21.82;34.34
57600;BME280;43426;43.594;24.334;2023-04-15T11:58:55;100538.63;;;21.50;31.52
57600;BME280;43426;43.594;24.334;2023-04-15T12:01:33;100532.75;;;21.75;30.99
57600;BME280;43426;43.594;24.334;2023-04-15T12:03:59;100528.53;;;22.29;31.39
57600;BME280;43426;43.594;24.334;2023-04-15T12:06:30;100534.06;;;22.73;31.05
57600;BME280;43426;43.594;24.334;2023-04-15T12:08:56;100531.13;;;22.80;29.82
57600;BME280;43426;43.594;24.334;2023-04-15T12:13:52;100516.56;;;23.07;30.71
57600;BME280;43426;43.594;24.334;2023-04-15T12:16:18;100529.94;;;23.58;28.65
57600;BME280;43426;43.594;24.334;2023-04-15T12:18:50;100528.88;;;23.26;29.77
57600;BME280;43426;43.594;24.334;2023-04-15T12:21:18;100520.03;;;22.97;31.51
57600;BME280;43426;43.594;24.334;2023-04-15T12:23:50;100530.25;;;22.52;34.37
57600;BME280;43426;43.594;24.334;2023-04-15T12:26:20;100527.97;;;21.71;32.76
57600;BME280;43426;43.594;24.334;2023-04-15T12:28:52;100533.72;;;21.69;34.25
57600;BME280;43426;43.594;24.334;2023-04-15T12:31:18;100533.97;;;21.68;34.57
57600;BME280;43426;43.594;24.334;2023-04-15T12:33:46;100530.41;;;21.84;33.40
57600;BME280;43426;43.594;24.334;2023-04-15T12:36:12;100531.13;;;21.97;34.12
57600;BME280;43426;43.594;24.334;2023-04-15T12:38:37;100525.59;;;22.14;34.39
57600;BME280;43426;43.594;24.334;2023-04-15T12:41:02;100527.72;;;21.89;33.35
57600;BME280;43426;43.594;24.334;2023-04-15T12:43:27;100525.00;;;21.72;33.17
57600;BME280;43426;43.594;24.334;2023-04-15T12:45:53;100525.00;;;21.89;35.75
57600;BME280;43426;43.594;24.334;2023-04-15T12:48:18;100531.56;;;21.88;32.78